sensor_id;sensor_type;location;lat;lon;timestamp;temperature;humidity
48208;DHT22;33997;53.278;9.708;2023-02-15T00:01:32;3.00;99.90
48208;DHT22;33997;53.278;9.708;2023-02-15T00:03:57;3.00;99.90
48208;DHT22;33997;53.278;9.708;2023-02-15T00:06:23;3.00;99.90
48208;DHT22;33997;53.278;9.708;2023-02-15T00:08:48;3.00;99.90
48208;DHT22;33997;53.278;9.708;2023-02-15T00:11:16;3.00;99.90
48208;DHT22;33997;53.278;9.708;2023-02-15T00:13:42;3.00;99.90
48208;DHT22;33997;53.278;9.708;2023-02-15T00:16:12;3.00;99.90
48208;DHT22;33997;53.278;9.708;2023-02-15T00:18:38;3.00;99.90
48208;DHT22;33997;53.278;9.708;2023-02-15T00:21:06;2.90;99.90
48208;DHT22;33997;53.278;9.708;2023-02-15T00:23:33;3.00;99.90
48208;DHT22;33997;53.278;9.708;2023-02-15T00:26:09;3.00;99.90
48208;DHT22;33997;53.278;9.708;2023-02-15T00:28:34;3.00;99.90
48208;DHT22;33997;53.278;9.708;2023-02-15T00:31:05;3.00;99.90
48208;DHT22;33997;53.278;9.708;2023-02-15T00:33:30;3.00;99.90
48208;DHT22;33997;53.278;9.708;2023-02-15T00:35:57;2.90;99.90
48208;DHT22;33997;53.278;9.708;2023-02-15T00:38:23;2.90;99.90
48208;DHT22;33997;53.278;9.708;2023-02-15T00:40:55;2.90;99.90
48208;DHT22;33997;53.278;9.708;2023-02-15T00:43:21;2.80;99.90
48208;DHT22;33997;53.278;9.708;2023-02-15T00:45:47;2.80;99.90
48208;DHT22;33997;53.278;9.708;2023-02-15T00:48:13;2.80;99.90
48208;DHT22;33997;53.278;9.708;2023-02-15T00:50:38;2.80;99.90
48208;DHT22;33997;53.278;9.708;2023-02-15T00:53:04;2.70;99.90
48208;DHT22;33997;53.278;9.708;2023-02-15T00:55:29;2.80;99.90
48208;DHT22;33997;53.278;9.708;2023-02-15T00:57:55;2.70;99.90
48208;DHT22;33997;53.278;9.708;2023-02-15T01:00:20;2.70;99.90
48208;DHT22;33997;53.278;9.708;2023-02-15T01:02:46;2.60;99.90
48208;DHT22;33997;53.278;9.708;2023-02-15T01:05:11;2.70;99.90
48208;DHT22;33997;53.278;9.708;2023-02-15T01:07:37;2.60;99.90
48208;DHT22;33997;53.278;9.708;2023-02-15T01:10:07;2.60;99.90
48208;DHT22;33997;53.278;9.708;2023-02-15T01:12:33;2.60;99.90
48208;DHT22;33997;53.278;9.708;2023-02-15T01:14:58;2.60;99.90
48208;DHT22;33997;53.278;9.708;2023-02-15T01:17:24;2.60;99.90
48208;DHT22;33997;53.278;9.708;2023-02-15T01:19:50;2.50;99.90
48208;DHT22;33997;53.278;9.708;2023-02-15T01:22:17;2.50;99.90
48208;DHT22;33997;53.278;9.708;2023-02-15T01:24:42;2.50;99.90
48208;DHT22;33997;53.278;9.708;2023-02-15T01:27:08;2.50;99.90
48208;DHT22;33997;53.278;9.708;2023-02-15T01:29:33;2.50;99.90
48208;DHT22;33997;53.278;9.708;2023-02-15T01:31:59;2.50;99.90
48208;DHT22;33997;53.278;9.708;2023-02-15T01:34:24;2.40;99.90
48208;DHT22;33997;53.278;9.708;2023-02-15T01:36:49;2.40;99.90
48208;DHT22;33997;53.278;9.708;2023-02-15T01:39:15;2.40;99.90
48208;DHT22;33997;53.278;9.708;2023-02-15T01:41:40;2.40;99.90
48208;DHT22;33997;53.278;9.708;2023-02-15T01:47:46;2.30;99.90
48208;DHT22;33997;53.278;9.708;2023-02-15T01:50:24;2.30;99.90
48208;DHT22;33997;53.278;9.708;2023-02-15T01:53:09;2.30;99.90
48208;DHT22;33997;53.278;9.708;2023-02-15T01:55:42;2.30;99.90
48208;DHT22;33997;53.278;9.708;2023-02-15T01:58:09;2.20;99.90
48208;DHT22;33997;53.278;9.708;2023-02-15T02:00:35;2.20;99.90
48208;DHT22;33997;53.278;9.708;2023-02-15T02:03:01;2.20;99.90
48208;DHT22;33997;53.278;9.708;2023-02-15T02:05:28;2.20;99.90
48208;DHT22;33997;53.278;9.708;2023-02-15T02:07:56;2.20;99.90
48208;DHT22;33997;53.278;9.708;2023-02-15T02:10:23;2.10;99.90
48208;DHT22;33997;53.278;9.708;2023-02-15T02:12:54;2.10;99.90
48208;DHT22;33997;53.278;9.708;2023-02-15T02:15:27;2.10;99.90
48208;DHT22;33997;53.278;9.708;2023-02-15T02:18:18;2.10;99.90
48208;DHT22;33997;53.278;9.708;2023-02-15T02:20:58;2.10;99.90
48208;DHT22;33997;53.278;9.708;2023-02-15T02:23:29;2.10;99.90
48208;DHT22;33997;53.278;9.708;2023-02-15T02:34:09;1.90;99.90
48208;DHT22;33997;53.278;9.708;2023-02-15T02:40:00;1.70;99.90
48208;DHT22;33997;53.278;9.708;2023-02-15T02:42:39;1.70;99.90
48208;DHT22;33997;53.278;9.708;2023-02-15T02:45:15;1.70;99.90
48208;DHT22;33997;53.278;9.708;2023-02-15T02:47:53;1.70;99.90
48208;DHT22;33997;53.278;9.708;2023-02-15T02:50:25;1.60;99.90
48208;DHT22;33997;53.278;9.708;2023-02-15T02:52:53;1.60;99.90
48208;DHT22;33997;53.278;9.708;2023-02-15T02:58:06;1.60;99.90
48208;DHT22;33997;53.278;9.708;2023-02-15T03:00:40;1.50;99.90
48208;DHT22;33997;53.278;9.708;2023-02-15T03:05:52;1.40;99.90
48208;DHT22;33997;53.278;9.708;2023-02-15T03:08:19;1.40;99.90
48208;DHT22;33997;53.278;9.708;2023-02-15T03:10:52;1.30;99.90
48208;DHT22;33997;53.278;9.708;2023-02-15T03:13:18;1.40;99.90
48208;DHT22;33997;53.278;9.708;2023-02-15T03:15:45;1.40;99.90
48208;DHT22;33997;53.278;9.708;2023-02-15T03:18:39;1.40;99.90
48208;DHT22;33997;53.278;9.708;2023-02-15T03:21:08;1.30;99.90
48208;DHT22;33997;53.278;9.708;2023-02-15T03:23:41;1.30;99.90
48208;DHT22;33997;53.278;9.708;2023-02-15T03:26:07;1.30;99.90
48208;DHT22;33997;53.278;9.708;2023-02-15T03:28:39;1.30;99.90
48208;DHT22;33997;53.278;9.708;2023-02-15T03:31:07;1.30;99.90
48208;DHT22;33997;53.278;9.708;2023-02-15T03:33:36;1.20;99.90
48208;DHT22;33997;53.278;9.708;2023-02-15T03:36:29;1.20;99.90
48208;DHT22;33997;53.278;9.708;2023-02-15T03:39:01;1.20;99.90
48208;DHT22;33997;53.278;9.708;2023-02-15T03:41:33;1.10;99.90
48208;DHT22;33997;53.278;9.708;2023-02-15T03:44:05;1.10;99.90
48208;DHT22;33997;53.278;9.708;2023-02-15T03:46:45;1.10;99.90
48208;DHT22;33997;53.278;9.708;2023-02-15T03:49:21;1.10;99.90
48208;DHT22;33997;53.278;9.708;2023-02-15T03:51:50;1.00;99.90
48208;DHT22;33997;53.278;9.708;2023-02-15T03:54:22;1.00;99.90
48208;DHT22;33997;53.278;9.708;2023-02-15T03:57:10;1.00;99.90
48208;DHT22;33997;53.278;9.708;2023-02-15T03:59:54;1.00;99.90
48208;DHT22;33997;53.278;9.708;2023-02-15T04:02:54;1.00;99.90
48208;DHT22;33997;53.278;9.708;2023-02-15T04:05:23;0.90;99.90
48208;DHT22;33997;53.278;9.708;2023-02-15T04:07:48;0.90;99.90
48208;DHT22;33997;53.278;9.708;2023-02-15T04:10:14;0.90;99.90
48208;DHT22;33997;53.278;9.708;2023-02-15T04:12:58;0.90;99.90
48208;DHT22;33997;53.278;9.708;2023-02-15T04:15:23;0.90;99.90
48208;DHT22;33997;53.278;9.708;2023-02-15T04:18:07;0.90;99.90
48208;DHT22;33997;53.278;9.708;2023-02-15T04:20:33;0.80;99.90
48208;DHT22;33997;53.278;9.708;2023-02-15T04:23:17;0.80;99.90
48208;DHT22;33997;53.278;9.708;2023-02-15T04:26:05;0.80;99.90
48208;DHT22;33997;53.278;9.708;2023-02-15T04:28:30;0.70;99.90
48208;DHT22;33997;53.278;9.708;2023-02-15T04:30:56;0.70;99.90
48208;DHT22;33997;53.278;9.708;2023-02-15T04:33:21;0.60;99.90
48208;DHT22;33997;53.278;9.708;2023-02-15T04:35:47;0.60;99.90
48208;DHT22;33997;53.278;9.708;2023-02-15T04:38:12;0.60;99.90
48208;DHT22;33997;53.278;9.708;2023-02-15T04:40:38;0.60;99.90
48208;DHT22;33997;53.278;9.708;2023-02-15T04:43:03;0.50;99.90
48208;DHT22;33997;53.278;9.708;2023-02-15T04:45:29;0.50;99.90
48208;DHT22;33997;53.278;9.708;2023-02-15T04:47:54;0.40;99.90
48208;DHT22;33997;53.278;9.708;2023-02-15T04:50:20;0.40;99.90
48208;DHT22;33997;53.278;9.708;2023-02-15T04:52:45;0.40;99.90
48208;DHT22;33997;53.278;9.708;2023-02-15T04:55:11;0.40;99.90
48208;DHT22;33997;53.278;9.708;2023-02-15T04:57:36;0.30;99.90
48208;DHT22;33997;53.278;9.708;2023-02-15T05:00:02;0.30;99.90
48208;DHT22;33997;53.278;9.708;2023-02-15T05:02:28;0.30;99.90
48208;DHT22;33997;53.278;9.708;2023-02-15T05:04:53;0.30;99.90
48208;DHT22;33997;53.278;9.708;2023-02-15T05:07:19;0.20;99.90
48208;DHT22;33997;53.278;9.708;2023-02-15T05:09:45;0.10;99.90
48208;DHT22;33997;53.278;9.708;2023-02-15T05:12:11;0.10;99.90
48208;DHT22;33997;53.278;9.708;2023-02-15T05:14:36;0.10;99.90
48208;DHT22;33997;53.278;9.708;2023-02-15T05:17:02;0.00;99.90
48208;DHT22;33997;53.278;9.708;2023-02-15T05:19:30;0.00;99.90
48208;DHT22;33997;53.278;9.708;2023-02-15T05:21:55;0.00;99.90
48208;DHT22;33997;53.278;9.708;2023-02-15T05:24:21;0.00;99.90
48208;DHT22;33997;53.278;9.708;2023-02-15T05:27:05;0.00;99.90
48208;DHT22;33997;53.278;9.708;2023-02-15T05:29:50;0.00;99.90
48208;DHT22;33997;53.278;9.708;2023-02-15T05:32:15;0.00;99.90
48208;DHT22;33997;53.278;9.708;2023-02-15T05:34:41;0.00;99.90
48208;DHT22;33997;53.278;9.708;2023-02-15T05:37:06;0.00;99.90
48208;DHT22;33997;53.278;9.708;2023-02-15T05:39:33;-3276.70;99.90
48208;DHT22;33997;53.278;9.708;2023-02-15T05:42:01;0.00;99.90
48208;DHT22;33997;53.278;9.708;2023-02-15T05:44:27;0.00;99.90
48208;DHT22;33997;53.278;9.708;2023-02-15T05:46:52;0.00;99.90
48208;DHT22;33997;53.278;9.708;2023-02-15T05:49:18;-3276.70;99.90
48208;DHT22;33997;53.278;9.708;2023-02-15T05:51:43;-3276.70;99.90
48208;DHT22;33997;53.278;9.708;2023-02-15T05:54:09;-3276.70;99.90
48208;DHT22;33997;53.278;9.708;2023-02-15T05:56:34;-3276.70;99.90
48208;DHT22;33997;53.278;9.708;2023-02-15T05:59:00;-3276.70;99.90
48208;DHT22;33997;53.278;9.708;2023-02-15T06:01:25;-3276.70;99.90
48208;DHT22;33997;53.278;9.708;2023-02-15T06:03:51;-3276.70;99.90
48208;DHT22;33997;53.278;9.708;2023-02-15T06:06:17;-3276.60;99.90
48208;DHT22;33997;53.278;9.708;2023-02-15T06:08:43;-3276.60;99.90
48208;DHT22;33997;53.278;9.708;2023-02-15T06:11:08;-3276.60;99.90
48208;DHT22;33997;53.278;9.708;2023-02-15T06:13:34;-3276.60;99.90
48208;DHT22;33997;53.278;9.708;2023-02-15T06:16:00;-3276.60;99.90
48208;DHT22;33997;53.278;9.708;2023-02-15T06:18:26;-3276.60;99.90
48208;DHT22;33997;53.278;9.708;2023-02-15T06:20:51;-3276.50;99.90
48208;DHT22;33997;53.278;9.708;2023-02-15T06:23:17;-3276.50;99.90
48208;DHT22;33997;53.278;9.708;2023-02-15T06:25:45;-3276.60;99.90
48208;DHT22;33997;53.278;9.708;2023-02-15T06:28:10;-3276.60;99.90
48208;DHT22;33997;53.278;9.708;2023-02-15T06:30:36;-3276.60;99.90
48208;DHT22;33997;53.278;9.708;2023-02-15T06:33:01;-3276.70;99.90
48208;DHT22;33997;53.278;9.708;2023-02-15T06:35:27;-3276.70;99.90
48208;DHT22;33997;53.278;9.708;2023-02-15T06:37:52;-3276.70;99.90
48208;DHT22;33997;53.278;9.708;2023-02-15T06:40:18;-3276.60;99.90
48208;DHT22;33997;53.278;9.708;2023-02-15T06:42:44;-3276.60;99.90
48208;DHT22;33997;53.278;9.708;2023-02-15T06:45:11;-3276.60;99.90
48208;DHT22;33997;53.278;9.708;2023-02-15T06:47:37;-3276.60;99.90
48208;DHT22;33997;53.278;9.708;2023-02-15T06:50:04;-3276.60;99.90
48208;DHT22;33997;53.278;9.708;2023-02-15T06:52:30;-3276.60;99.90
48208;DHT22;33997;53.278;9.708;2023-02-15T06:54:56;-3276.60;99.90
48208;DHT22;33997;53.278;9.708;2023-02-15T06:57:21;-3276.70;99.90
48208;DHT22;33997;53.278;9.708;2023-02-15T06:59:47;-3276.70;99.90
48208;DHT22;33997;53.278;9.708;2023-02-15T07:02:12;-3276.70;99.90
48208;DHT22;33997;53.278;9.708;2023-02-15T07:04:38;-3276.70;99.90
48208;DHT22;33997;53.278;9.708;2023-02-15T07:07:04;-3276.60;99.90
48208;DHT22;33997;53.278;9.708;2023-02-15T07:09:32;-3276.60;99.90
48208;DHT22;33997;53.278;9.708;2023-02-15T07:11:58;-3276.60;99.90
48208;DHT22;33997;53.278;9.708;2023-02-15T07:14:42;-3276.70;99.90
48208;DHT22;33997;53.278;9.708;2023-02-15T07:17:07;-3276.70;99.90
48208;DHT22;33997;53.278;9.708;2023-02-15T07:19:33;-3276.70;99.90
48208;DHT22;33997;53.278;9.708;2023-02-15T07:21:58;0.00;99.90
48208;DHT22;33997;53.278;9.708;2023-02-15T07:24:24;0.00;99.90
48208;DHT22;33997;53.278;9.708;2023-02-15T07:26:49;0.00;99.90
48208;DHT22;33997;53.278;9.708;2023-02-15T07:29:15;0.00;99.90
48208;DHT22;33997;53.278;9.708;2023-02-15T07:31:41;0.00;99.90
48208;DHT22;33997;53.278;9.708;2023-02-15T07:34:08;0.00;99.90
48208;DHT22;33997;53.278;9.708;2023-02-15T07:36:34;0.00;99.90
48208;DHT22;33997;53.278;9.708;2023-02-15T07:38:59;0.00;99.90
48208;DHT22;33997;53.278;9.708;2023-02-15T07:41:25;0.00;99.90
48208;DHT22;33997;53.278;9.708;2023-02-15T07:43:50;-3276.70;99.90
48208;DHT22;33997;53.278;9.708;2023-02-15T07:46:16;0.00;99.90
48208;DHT22;33997;53.278;9.708;2023-02-15T07:48:42;0.00;99.90
48208;DHT22;33997;53.278;9.708;2023-02-15T07:51:10;0.00;99.90
48208;DHT22;33997;53.278;9.708;2023-02-15T07:53:37;0.00;99.90
48208;DHT22;33997;53.278;9.708;2023-02-15T07:56:05;0.00;99.80
48208;DHT22;33997;53.278;9.708;2023-02-15T07:58:31;0.00;99.90
48208;DHT22;33997;53.278;9.708;2023-02-15T08:01:16;0.00;99.90
48208;DHT22;33997;53.278;9.708;2023-02-15T08:03:42;0.00;99.90
48208;DHT22;33997;53.278;9.708;2023-02-15T08:06:07;0.10;99.90
48208;DHT22;33997;53.278;9.708;2023-02-15T08:08:34;0.20;99.90
48208;DHT22;33997;53.278;9.708;2023-02-15T08:13:59;0.40;99.90
48208;DHT22;33997;53.278;9.708;2023-02-15T08:19:06;0.40;99.90
48208;DHT22;33997;53.278;9.708;2023-02-15T08:21:33;0.40;99.90
48208;DHT22;33997;53.278;9.708;2023-02-15T08:23:59;0.50;99.90
48208;DHT22;33997;53.278;9.708;2023-02-15T08:26:25;0.60;99.90
48208;DHT22;33997;53.278;9.708;2023-02-15T08:28:51;0.60;99.90
48208;DHT22;33997;53.278;9.708;2023-02-15T08:31:17;0.60;99.90
48208;DHT22;33997;53.278;9.708;2023-02-15T08:33:44;0.60;99.90
48208;DHT22;33997;53.278;9.708;2023-02-15T08:36:15;0.80;99.90
48208;DHT22;33997;53.278;9.708;2023-02-15T08:38:41;0.80;99.90
48208;DHT22;33997;53.278;9.708;2023-02-15T08:43:48;0.90;99.80
48208;DHT22;33997;53.278;9.708;2023-02-15T08:46:15;0.90;99.80
48208;DHT22;33997;53.278;9.708;2023-02-15T08:48:42;1.00;99.80
48208;DHT22;33997;53.278;9.708;2023-02-15T08:51:13;1.00;99.70
48208;DHT22;33997;53.278;9.708;2023-02-15T08:53:41;0.90;99.50
48208;DHT22;33997;53.278;9.708;2023-02-15T08:56:08;1.00;99.50
48208;DHT22;33997;53.278;9.708;2023-02-15T08:58:34;1.30;99.90
48208;DHT22;33997;53.278;9.708;2023-02-15T09:01:00;1.40;99.60
48208;DHT22;33997;53.278;9.708;2023-02-15T09:03:28;1.60;99.60
48208;DHT22;33997;53.278;9.708;2023-02-15T09:05:58;1.60;99.40
48208;DHT22;33997;53.278;9.708;2023-02-15T09:08:24;1.90;99.70
48208;DHT22;33997;53.278;9.708;2023-02-15T09:10:49;2.30;99.90
48208;DHT22;33997;53.278;9.708;2023-02-15T09:13:14;2.50;99.70
48208;DHT22;33997;53.278;9.708;2023-02-15T09:15:40;2.60;99.50
48208;DHT22;33997;53.278;9.708;2023-02-15T09:18:05;2.70;99.30
48208;DHT22;33997;53.278;9.708;2023-02-15T09:20:34;2.60;98.70
48208;DHT22;33997;53.278;9.708;2023-02-15T09:23:00;2.70;98.70
48208;DHT22;33997;53.278;9.708;2023-02-15T09:25:26;2.80;98.40
48208;DHT22;33997;53.278;9.708;2023-02-15T09:27:51;2.90;98.10
48208;DHT22;33997;53.278;9.708;2023-02-15T09:30:17;3.30;98.30
48208;DHT22;33997;53.278;9.708;2023-02-15T09:32:43;3.20;97.40
48208;DHT22;33997;53.278;9.708;2023-02-15T09:35:08;3.20;97.10
48208;DHT22;33997;53.278;9.708;2023-02-15T09:37:34;3.40;97.30
48208;DHT22;33997;53.278;9.708;2023-02-15T09:39:59;3.70;97.50
48208;DHT22;33997;53.278;9.708;2023-02-15T09:45:53;4.10;96.70
48208;DHT22;33997;53.278;9.708;2023-02-15T09:51:48;4.50;95.20
48208;DHT22;33997;53.278;9.708;2023-02-15T09:54:35;4.60;95.50
48208;DHT22;33997;53.278;9.708;2023-02-15T09:57:10;4.40;93.70
48208;DHT22;33997;53.278;9.708;2023-02-15T10:02:38;4.70;94.00
48208;DHT22;33997;53.278;9.708;2023-02-15T10:05:24;4.80;94.00
48208;DHT22;33997;53.278;9.708;2023-02-15T10:08:19;5.20;94.40
48208;DHT22;33997;53.278;9.708;2023-02-15T10:14:02;5.50;93.10
48208;DHT22;33997;53.278;9.708;2023-02-15T10:22:19;5.30;92.90
48208;DHT22;33997;53.278;9.708;2023-02-15T10:27:51;5.60;92.70
48208;DHT22;33997;53.278;9.708;2023-02-15T10:30:36;5.70;93.20
48208;DHT22;33997;53.278;9.708;2023-02-15T10:33:12;5.90;92.60
48208;DHT22;33997;53.278;9.708;2023-02-15T10:36:04;6.00;91.90
48208;DHT22;33997;53.278;9.708;2023-02-15T10:38:52;6.10;92.00
48208;DHT22;33997;53.278;9.708;2023-02-15T10:44:39;6.00;90.90
48208;DHT22;33997;53.278;9.708;2023-02-15T10:47:13;6.20;91.20
48208;DHT22;33997;53.278;9.708;2023-02-15T10:50:13;6.20;91.40
48208;DHT22;33997;53.278;9.708;2023-02-15T10:52:59;6.50;91.60
48208;DHT22;33997;53.278;9.708;2023-02-15T10:55:48;6.50;90.80
48208;DHT22;33997;53.278;9.708;2023-02-15T10:58:57;6.80;90.40
48208;DHT22;33997;53.278;9.708;2023-02-15T11:01:44;7.10;90.00
48208;DHT22;33997;53.278;9.708;2023-02-15T11:06:48;7.00;89.00
48208;DHT22;33997;53.278;9.708;2023-02-15T11:09:18;7.30;89.30
48208;DHT22;33997;53.278;9.708;2023-02-15T11:11:49;7.40;88.50
48208;DHT22;33997;53.278;9.708;2023-02-15T11:16:59;7.40;88.10
48208;DHT22;33997;53.278;9.708;2023-02-15T11:19:33;7.60;87.70
48208;DHT22;33997;53.278;9.708;2023-02-15T11:22:05;7.70;87.60
48208;DHT22;33997;53.278;9.708;2023-02-15T11:24:36;7.80;87.50
48208;DHT22;33997;53.278;9.708;2023-02-15T11:27:17;8.00;86.70
48208;DHT22;33997;53.278;9.708;2023-02-15T11:35:05;8.40;85.20
48208;DHT22;33997;53.278;9.708;2023-02-15T11:37:54;8.60;85.20
48208;DHT22;33997;53.278;9.708;2023-02-15T11:40:49;8.90;84.40
48208;DHT22;33997;53.278;9.708;2023-02-15T11:43:18;9.00;83.80
48208;DHT22;33997;53.278;9.708;2023-02-15T11:45:44;9.10;83.40
48208;DHT22;33997;53.278;9.708;2023-02-15T11:48:12;9.20;83.60
48208;DHT22;33997;53.278;9.708;2023-02-15T11:50:38;9.30;81.90
48208;DHT22;33997;53.278;9.708;2023-02-15T11:53:10;9.30;81.80
48208;DHT22;33997;53.278;9.708;2023-02-15T11:55:36;9.60;82.20
48208;DHT22;33997;53.278;9.708;2023-02-15T12:01:09;9.80;80.40
48208;DHT22;33997;53.278;9.708;2023-02-15T12:03:52;9.90;80.60
48208;DHT22;33997;53.278;9.708;2023-02-15T12:09:53;10.10;80.00
48208;DHT22;33997;53.278;9.708;2023-02-15T12:12:23;10.60;79.70
48208;DHT22;33997;53.278;9.708;2023-02-15T12:15:06;10.40;78.10
48208;DHT22;33997;53.278;9.708;2023-02-15T12:17:52;10.60;78.80
48208;DHT22;33997;53.278;9.708;2023-02-15T12:23:12;10.90;77.60
48208;DHT22;33997;53.278;9.708;2023-02-15T12:25:58;11.30;78.10
48208;DHT22;33997;53.278;9.708;2023-02-15T12:28:36;11.60;75.40
48208;DHT22;33997;53.278;9.708;2023-02-15T12:31:09;11.90;75.50
48208;DHT22;33997;53.278;9.708;2023-02-15T12:33:39;12.20;75.10
48208;DHT22;33997;53.278;9.708;2023-02-15T12:36:32;12.10;72.60
48208;DHT22;33997;53.278;9.708;2023-02-15T12:41:43;11.70;74.80
48208;DHT22;33997;53.278;9.708;2023-02-15T12:44:19;11.80;76.00
48208;DHT22;33997;53.278;9.708;2023-02-15T12:47:00;12.00;75.10
48208;DHT22;33997;53.278;9.708;2023-02-15T12:49:32;12.70;73.70
48208;DHT22;33997;53.278;9.708;2023-02-15T12:51:58;12.30;72.80
48208;DHT22;33997;53.278;9.708;2023-02-15T12:54:29;12.40;71.40
48208;DHT22;33997;53.278;9.708;2023-02-15T12:56:55;12.60;71.70
48208;DHT22;33997;53.278;9.708;2023-02-15T12:59:22;12.60;70.90
48208;DHT22;33997;53.278;9.708;2023-02-15T13:01:48;12.90;70.80
48208;DHT22;33997;53.278;9.708;2023-02-15T13:04:27;13.00;69.80
48208;DHT22;33997;53.278;9.708;2023-02-15T13:06:56;13.00;69.80
48208;DHT22;33997;53.278;9.708;2023-02-15T13:12:25;13.00;70.20
48208;DHT22;33997;53.278;9.708;2023-02-15T13:14:56;13.00;70.90
48208;DHT22;33997;53.278;9.708;2023-02-15T13:17:28;12.60;69.60
48208;DHT22;33997;53.278;9.708;2023-02-15T13:20:06;12.90;70.60
48208;DHT22;33997;53.278;9.708;2023-02-15T13:22:42;13.30;69.10
48208;DHT22;33997;53.278;9.708;2023-02-15T13:25:22;13.40;69.20
48208;DHT22;33997;53.278;9.708;2023-02-15T13:27:52;13.10;68.90
48208;DHT22;33997;53.278;9.708;2023-02-15T13:30:42;13.30;69.40
48208;DHT22;33997;53.278;9.708;2023-02-15T13:33:30;12.70;69.00
48208;DHT22;33997;53.278;9.708;2023-02-15T13:38:55;12.20;71.00
48208;DHT22;33997;53.278;9.708;2023-02-15T13:41:46;12.10;70.30
48208;DHT22;33997;53.278;9.708;2023-02-15T13:44:49;12.30;71.40
48208;DHT22;33997;53.278;9.708;2023-02-15T13:47:26;12.30;71.30
48208;DHT22;33997;53.278;9.708;2023-02-15T13:50:06;13.00;70.20
48208;DHT22;33997;53.278;9.708;2023-02-15T13:55:54;13.10;69.00
48208;DHT22;33997;53.278;9.708;2023-02-15T14:07:02;14.20;66.70
48208;DHT22;33997;53.278;9.708;2023-02-15T14:09:57;14.00;64.50
48208;DHT22;33997;53.278;9.708;2023-02-15T14:15:53;14.30;65.60
48208;DHT22;33997;53.278;9.708;2023-02-15T14:18:41;14.10;66.10
48208;DHT22;33997;53.278;9.708;2023-02-15T14:24:12;13.80;65.40
48208;DHT22;33997;53.278;9.708;2023-02-15T14:27:26;14.00;65.10
48208;DHT22;33997;53.278;9.708;2023-02-15T14:30:12;13.90;65.20
48208;DHT22;33997;53.278;9.708;2023-02-15T14:32:42;13.90;65.40
48208;DHT22;33997;53.278;9.708;2023-02-15T14:35:16;12.80;67.30
48208;DHT22;33997;53.278;9.708;2023-02-15T14:43:48;12.30;69.50
48208;DHT22;33997;53.278;9.708;2023-02-15T14:46:48;12.50;69.60
48208;DHT22;33997;53.278;9.708;2023-02-15T14:49:27;12.20;69.50
48208;DHT22;33997;53.278;9.708;2023-02-15T14:51:56;12.30;70.00
48208;DHT22;33997;53.278;9.708;2023-02-15T14:59:37;12.70;69.30
48208;DHT22;33997;53.278;9.708;2023-02-15T15:04:42;12.00;70.20
48208;DHT22;33997;53.278;9.708;2023-02-15T15:07:21;11.80;72.00
48208;DHT22;33997;53.278;9.708;2023-02-15T15:12:52;11.10;72.90
48208;DHT22;33997;53.278;9.708;2023-02-15T15:17:54;10.90;74.30
48208;DHT22;33997;53.278;9.708;2023-02-15T15:25:49;10.50;76.20
48208;DHT22;33997;53.278;9.708;2023-02-15T15:31:09;10.10;77.00
48208;DHT22;33997;53.278;9.708;2023-02-15T15:34:12;10.10;77.70
48208;DHT22;33997;53.278;9.708;2023-02-15T15:37:23;9.80;78.30
48208;DHT22;33997;53.278;9.708;2023-02-15T15:40:20;9.70;78.60
48208;DHT22;33997;53.278;9.708;2023-02-15T15:43:11;9.50;79.00
48208;DHT22;33997;53.278;9.708;2023-02-15T15:48:40;9.30;79.70
48208;DHT22;33997;53.278;9.708;2023-02-15T15:51:28;9.10;80.10
48208;DHT22;33997;53.278;9.708;2023-02-15T15:53:55;9.10;80.50
48208;DHT22;33997;53.278;9.708;2023-02-15T15:56:24;8.90;80.70
48208;DHT22;33997;53.278;9.708;2023-02-15T15:58:57;8.80;81.30
48208;DHT22;33997;53.278;9.708;2023-02-15T16:01:26;8.70;81.50
48208;DHT22;33997;53.278;9.708;2023-02-15T16:03:54;8.50;81.90
48208;DHT22;33997;53.278;9.708;2023-02-15T16:06:37;8.40;82.20
48208;DHT22;33997;53.278;9.708;2023-02-15T16:09:24;8.20;82.70
48208;DHT22;33997;53.278;9.708;2023-02-15T16:11:55;8.10;83.00
48208;DHT22;33997;53.278;9.708;2023-02-15T16:14:29;8.00;83.60
48208;DHT22;33997;53.278;9.708;2023-02-15T16:16:58;7.90;83.80
48208;DHT22;33997;53.278;9.708;2023-02-15T16:19:28;7.80;84.20
48208;DHT22;33997;53.278;9.708;2023-02-15T16:21:55;7.70;84.80
48208;DHT22;33997;53.278;9.708;2023-02-15T16:27:10;7.50;85.30
48208;DHT22;33997;53.278;9.708;2023-02-15T16:29:39;7.40;85.70
48208;DHT22;33997;53.278;9.708;2023-02-15T16:34:58;7.30;86.00
48208;DHT22;33997;53.278;9.708;2023-02-15T16:37:26;7.30;86.00
48208;DHT22;33997;53.278;9.708;2023-02-15T16:39:53;7.20;86.00
48208;DHT22;33997;53.278;9.708;2023-02-15T16:42:19;7.20;86.00
48208;DHT22;33997;53.278;9.708;2023-02-15T16:44:47;7.20;86.10
48208;DHT22;33997;53.278;9.708;2023-02-15T16:47:21;7.10;86.20
48208;DHT22;33997;53.278;9.708;2023-02-15T16:49:50;7.10;86.20
48208;DHT22;33997;53.278;9.708;2023-02-15T16:52:21;7.10;86.30
48208;DHT22;33997;53.278;9.708;2023-02-15T16:55:00;7.00;86.50
48208;DHT22;33997;53.278;9.708;2023-02-15T16:57:30;7.00;86.60
48208;DHT22;33997;53.278;9.708;2023-02-15T17:00:02;6.90;86.80
48208;DHT22;33997;53.278;9.708;2023-02-15T17:02:32;6.90;87.10
48208;DHT22;33997;53.278;9.708;2023-02-15T17:07:27;6.70;87.20
48208;DHT22;33997;53.278;9.708;2023-02-15T17:09:56;6.60;87.50
48208;DHT22;33997;53.278;9.708;2023-02-15T17:12:51;6.60;88.10
48208;DHT22;33997;53.278;9.708;2023-02-15T17:15:36;6.60;88.00
48208;DHT22;33997;53.278;9.708;2023-02-15T17:18:04;6.50;88.10
48208;DHT22;33997;53.278;9.708;2023-02-15T17:20:32;6.50;88.00
48208;DHT22;33997;53.278;9.708;2023-02-15T17:22:58;6.60;87.80
48208;DHT22;33997;53.278;9.708;2023-02-15T17:25:30;6.50;87.80
48208;DHT22;33997;53.278;9.708;2023-02-15T17:27:58;6.40;88.10
48208;DHT22;33997;53.278;9.708;2023-02-15T17:30:33;6.50;88.00
48208;DHT22;33997;53.278;9.708;2023-02-15T17:33:03;6.60;88.10
48208;DHT22;33997;53.278;9.708;2023-02-15T17:35:32;6.50;88.00
48208;DHT22;33997;53.278;9.708;2023-02-15T17:38:03;6.40;88.10
48208;DHT22;33997;53.278;9.708;2023-02-15T17:40:34;6.30;88.20
48208;DHT22;33997;53.278;9.708;2023-02-15T17:43:00;6.30;88.70
48208;DHT22;33997;53.278;9.708;2023-02-15T17:45:31;6.30;88.70
48208;DHT22;33997;53.278;9.708;2023-02-15T17:47:57;6.10;88.80
48208;DHT22;33997;53.278;9.708;2023-02-15T17:50:26;6.10;89.00
48208;DHT22;33997;53.278;9.708;2023-02-15T17:52:53;6.00;89.10
48208;DHT22;33997;53.278;9.708;2023-02-15T17:55:21;5.90;89.30
48208;DHT22;33997;53.278;9.708;2023-02-15T17:58:00;5.80;89.70
48208;DHT22;33997;53.278;9.708;2023-02-15T18:00:26;5.70;89.80
48208;DHT22;33997;53.278;9.708;2023-02-15T18:03:10;5.60;89.80
48208;DHT22;33997;53.278;9.708;2023-02-15T18:05:56;5.60;90.10
48208;DHT22;33997;53.278;9.708;2023-02-15T18:08:40;5.60;90.50
48208;DHT22;33997;53.278;9.708;2023-02-15T18:11:24;5.50;90.20
48208;DHT22;33997;53.278;9.708;2023-02-15T18:14:03;5.60;90.70
48208;DHT22;33997;53.278;9.708;2023-02-15T18:16:32;5.60;90.70
48208;DHT22;33997;53.278;9.708;2023-02-15T18:18:58;5.50;90.50
48208;DHT22;33997;53.278;9.708;2023-02-15T18:21:24;5.50;90.70
48208;DHT22;33997;53.278;9.708;2023-02-15T18:23:49;5.60;90.60